ENSL weather

Sleipner A Platform
Norway

Public forecast

Using degrees Celsius for public forecast. Weather courtesy of forecast.io.

METAR (pilot weather report)

Retrieved 2019/05/21 07:20 UTC (39 minutes ago):

ENSL 210720Z 34021KT 9999 BKN008 10/08 Q1013 W08/S3

TAF (pilot weather forecast)

Closest forecast is Stavanger Airport Sola, 120.6 nm (223.3 km) ENE. Retrieved 2019/05/21 06:57 UTC (1 hour ago):

TAF ENZV 210500Z 2106/2206 VRB03KT CAVOK BECMG 2108/2110 34010KT TEMPO 2115/2118 SHRA FEW010 SCT020CB TEMPO 2120/2124 2000 BR BKN004 PROB40 TEMPO 2200/2206 2000 SHRA BKN006 FEW020CB